createdAt,value
2022-12-23T00:00:18.998Z,3.53
2022-12-23T00:02:46.926Z,3.22
2022-12-23T00:05:20.355Z,3.18
2022-12-23T00:07:46.778Z,3.23
2022-12-23T00:10:13.192Z,3.09
2022-12-23T00:12:39.538Z,3.11
2022-12-23T00:15:06.059Z,3.09
2022-12-23T00:17:32.458Z,3.53
2022-12-23T00:19:58.931Z,3.50
2022-12-23T00:22:25.315Z,3.09
2022-12-23T00:24:51.744Z,3.41
2022-12-23T00:27:18.437Z,3.54
2022-12-23T00:29:44.807Z,3.24
2022-12-23T00:32:11.320Z,3.59
2022-12-23T00:34:37.845Z,4.22
2022-12-23T00:37:04.277Z,3.69
2022-12-23T00:39:34.245Z,3.55
2022-12-23T00:42:01.856Z,3.23
2022-12-23T00:44:28.370Z,3.90
2022-12-23T00:46:54.855Z,3.89
2022-12-23T00:49:21.287Z,3.91
2022-12-23T00:51:47.665Z,3.51
2022-12-23T00:54:14.088Z,2.83
2022-12-23T00:56:40.471Z,2.61
2022-12-23T00:59:07.872Z,3.01
2022-12-23T01:01:34.319Z,2.84
2022-12-23T01:04:00.785Z,2.76
2022-12-23T01:06:27.143Z,2.71
2022-12-23T01:08:53.573Z,2.50
2022-12-23T01:11:19.938Z,2.17
2022-12-23T01:13:46.390Z,2.46
2022-12-23T01:16:17.095Z,2.51
2022-12-23T01:18:44.219Z,2.87
2022-12-23T01:21:10.647Z,2.62
2022-12-23T01:23:37.014Z,2.41
2022-12-23T01:26:03.426Z,2.26
2022-12-23T01:28:29.803Z,2.07
2022-12-23T01:30:56.284Z,1.93
2022-12-23T01:33:22.739Z,2.13
2022-12-23T01:35:50.091Z,2.42
2022-12-23T01:38:16.456Z,2.45
2022-12-23T01:40:42.838Z,2.52
2022-12-23T01:43:11.015Z,3.07
2022-12-23T01:45:37.509Z,2.63
2022-12-23T01:48:03.926Z,3.04
2022-12-23T01:50:30.708Z,3.28
2022-12-23T01:53:00.491Z,3.30
2022-12-23T01:55:31.116Z,2.98
2022-12-23T01:57:57.700Z,2.87
2022-12-23T02:00:24.065Z,2.83
2022-12-23T02:02:50.592Z,2.83
2022-12-23T02:05:17.199Z,2.50
2022-12-23T02:07:43.544Z,2.32
2022-12-23T02:10:09.930Z,2.27
2022-12-23T02:12:36.290Z,2.46
2022-12-23T02:15:02.683Z,2.66
2022-12-23T02:17:29.077Z,2.43
2022-12-23T02:19:56.753Z,2.51
2022-12-23T02:22:23.443Z,2.95
2022-12-23T02:24:50.059Z,2.93
2022-12-23T02:27:16.432Z,2.68
2022-12-23T02:29:42.882Z,2.52
2022-12-23T02:32:11.104Z,2.58
2022-12-23T02:34:37.585Z,2.83
2022-12-23T02:37:04.181Z,3.02
2022-12-23T02:39:33.310Z,3.18
2022-12-23T02:41:59.911Z,3.18
2022-12-23T02:44:26.309Z,3.23
2022-12-23T02:46:52.637Z,3.33
2022-12-23T02:49:18.973Z,3.34
2022-12-23T02:51:45.543Z,2.33
2022-12-23T02:54:11.946Z,1.84
2022-12-23T02:56:38.358Z,1.51
2022-12-23T02:59:04.759Z,1.37
2022-12-23T03:01:31.178Z,1.96
2022-12-23T03:03:57.723Z,2.87
2022-12-23T03:06:24.202Z,2.59
2022-12-23T03:08:50.629Z,2.78
2022-12-23T03:11:17.092Z,2.96
2022-12-23T03:13:43.465Z,3.22
2022-12-23T03:16:09.979Z,3.04
2022-12-23T03:18:36.560Z,3.32
2022-12-23T03:21:02.905Z,2.55
2022-12-23T03:23:29.240Z,2.79
2022-12-23T03:25:55.671Z,3.03
2022-12-23T03:28:22.116Z,2.32
2022-12-23T03:30:48.484Z,2.21
2022-12-23T03:33:17.836Z,2.40
2022-12-23T03:35:44.392Z,1.95
2022-12-23T03:38:10.926Z,1.92
2022-12-23T03:40:37.500Z,2.23
2022-12-23T03:43:03.900Z,2.22
2022-12-23T03:45:39.823Z,2.31
2022-12-23T03:48:07.343Z,1.93
2022-12-23T03:50:33.802Z,2.23
2022-12-23T03:53:00.366Z,2.39
2022-12-23T03:55:26.792Z,2.46
2022-12-23T03:57:53.119Z,2.34
2022-12-23T04:00:19.492Z,2.24
2022-12-23T04:02:46.299Z,2.54
2022-12-23T04:05:12.764Z,2.41
2022-12-23T04:07:39.133Z,2.11
2022-12-23T04:10:05.495Z,2.17
2022-12-23T04:12:31.832Z,2.23
2022-12-23T04:14:58.168Z,2.38
2022-12-23T04:17:24.740Z,2.36
2022-12-23T04:19:51.152Z,2.33
2022-12-23T04:22:17.493Z,2.41
2022-12-23T04:24:44.068Z,2.35
2022-12-23T04:27:10.506Z,2.11
2022-12-23T04:29:36.856Z,2.35
2022-12-23T04:32:03.269Z,4.69
2022-12-23T04:34:29.629Z,2.29
2022-12-23T04:36:56.181Z,2.23
2022-12-23T04:39:22.597Z,2.49
2022-12-23T04:41:48.927Z,2.43
2022-12-23T04:44:15.327Z,2.28
2022-12-23T04:46:44.355Z,2.26
2022-12-23T04:49:10.949Z,2.53
2022-12-23T04:51:37.306Z,2.22
2022-12-23T04:54:03.702Z,2.22
2022-12-23T04:56:30.087Z,2.21
2022-12-23T04:58:56.449Z,2.15
2022-12-23T05:01:22.861Z,2.05
2022-12-23T05:03:49.298Z,1.88
2022-12-23T05:06:15.672Z,1.68
2022-12-23T05:08:42.070Z,2.13
2022-12-23T05:11:08.660Z,1.91
2022-12-23T05:13:35.063Z,1.77
2022-12-23T05:16:01.518Z,1.62
2022-12-23T05:18:27.902Z,1.52
2022-12-23T05:20:54.272Z,1.49
2022-12-23T05:23:20.642Z,1.61
2022-12-23T05:25:46.980Z,1.54
2022-12-23T05:28:13.311Z,1.56
2022-12-23T05:30:39.693Z,1.61
2022-12-23T05:33:06.121Z,1.18
2022-12-23T05:35:32.528Z,1.22
2022-12-23T05:37:59.170Z,1.48
2022-12-23T05:40:26.321Z,1.64
2022-12-23T05:42:55.121Z,1.11
2022-12-23T05:45:21.636Z,0.80
2022-12-23T05:47:47.984Z,1.05
2022-12-23T05:50:14.407Z,1.48
2022-12-23T05:52:40.939Z,1.52
2022-12-23T05:55:07.303Z,2.54
2022-12-23T05:57:33.745Z,1.31
2022-12-23T06:00:00.170Z,1.49
2022-12-23T06:02:26.811Z,1.86
2022-12-23T06:04:53.230Z,2.25
2022-12-23T06:07:19.626Z,2.71
2022-12-23T06:09:46.034Z,2.57
2022-12-23T06:12:12.439Z,1.69
2022-12-23T06:14:38.834Z,1.48
2022-12-23T06:17:05.282Z,1.73
2022-12-23T06:19:31.768Z,1.73
2022-12-23T06:21:58.172Z,1.92
2022-12-23T06:24:24.579Z,3.28
2022-12-23T06:26:56.519Z,2.54
2022-12-23T06:29:23.533Z,2.05
2022-12-23T06:31:49.935Z,2.34
2022-12-23T06:34:16.325Z,2.23
2022-12-23T06:36:42.706Z,2.29
2022-12-23T06:39:09.090Z,2.40
2022-12-23T06:41:35.459Z,2.28
2022-12-23T06:44:02.800Z,2.61
2022-12-23T06:46:29.264Z,2.41
2022-12-23T06:48:55.861Z,2.46
2022-12-23T06:51:22.211Z,2.49
2022-12-23T06:53:48.583Z,2.41
2022-12-23T06:56:14.957Z,2.53
2022-12-23T06:58:45.425Z,2.48
2022-12-23T07:03:52.555Z,2.82
2022-12-23T07:06:19.244Z,2.87
2022-12-23T07:08:45.895Z,2.67
2022-12-23T07:11:14.906Z,3.11
2022-12-23T07:13:46.807Z,3.26
2022-12-23T07:16:13.631Z,3.54
2022-12-23T07:21:28.608Z,2.18
2022-12-23T07:23:55.711Z,2.62
2022-12-23T07:26:23.122Z,3.15
2022-12-23T07:28:49.538Z,2.85
2022-12-23T07:31:16.398Z,2.97
2022-12-23T07:33:50.642Z,3.32
2022-12-23T07:36:17.019Z,3.21
2022-12-23T07:38:43.474Z,3.00
2022-12-23T07:41:09.872Z,1.72
2022-12-23T07:43:47.595Z,2.34
2022-12-23T07:46:16.545Z,1.63
2022-12-23T07:48:45.601Z,2.27
2022-12-23T07:51:12.042Z,1.75
2022-12-23T07:53:40.975Z,1.65
2022-12-23T07:56:07.457Z,2.03
2022-12-23T07:58:33.996Z,2.17
2022-12-23T08:01:00.555Z,1.90
2022-12-23T08:03:27.197Z,1.46
2022-12-23T08:05:53.667Z,1.88
2022-12-23T08:08:20.164Z,1.86
2022-12-23T08:10:48.519Z,1.83
2022-12-23T08:13:15.175Z,1.64
2022-12-23T08:18:21.848Z,1.87
2022-12-23T08:20:48.322Z,1.90
2022-12-23T08:23:18.693Z,1.99
2022-12-23T08:25:47.865Z,2.30
2022-12-23T08:28:14.317Z,2.23
2022-12-23T08:30:42.534Z,2.09
2022-12-23T08:33:09.024Z,2.00
2022-12-23T08:35:35.467Z,1.99
2022-12-23T08:38:01.993Z,2.43
2022-12-23T08:40:28.474Z,2.34
2022-12-23T08:43:02.334Z,2.74
2022-12-23T08:45:29.113Z,3.09
2022-12-23T08:47:55.593Z,3.06
2022-12-23T08:50:22.073Z,2.45
2022-12-23T08:52:48.532Z,1.84
2022-12-23T08:55:14.998Z,2.11
2022-12-23T08:57:41.430Z,2.40
2022-12-23T09:00:07.949Z,2.50
2022-12-23T09:02:34.657Z,2.28
2022-12-23T09:05:01.243Z,2.32
2022-12-23T09:07:27.688Z,2.48
2022-12-23T09:09:54.121Z,2.93
2022-12-23T09:12:20.633Z,2.69
2022-12-23T09:14:47.181Z,2.15
2022-12-23T09:17:13.657Z,1.81
2022-12-23T09:19:40.118Z,1.78
2022-12-23T09:22:06.612Z,1.99
2022-12-23T09:24:33.404Z,1.76
2022-12-23T09:26:59.869Z,1.72
2022-12-23T09:29:26.336Z,3.33
2022-12-23T09:31:52.810Z,3.17
2022-12-23T09:34:19.196Z,2.28
2022-12-23T09:36:48.025Z,2.45
2022-12-23T09:39:18.304Z,2.43
2022-12-23T09:41:44.762Z,1.81
2022-12-23T09:44:11.301Z,2.06
2022-12-23T09:46:37.773Z,2.27
2022-12-23T09:49:04.365Z,1.99
2022-12-23T09:51:30.791Z,2.07
2022-12-23T09:53:57.250Z,1.76
2022-12-23T09:56:23.702Z,2.04
2022-12-23T09:58:50.161Z,5.80
2022-12-23T10:01:16.595Z,3.52
2022-12-23T10:03:43.346Z,2.29
2022-12-23T10:06:12.809Z,1.69
2022-12-23T10:08:39.395Z,1.48
2022-12-23T10:11:24.268Z,1.64
2022-12-23T10:13:50.632Z,2.04
2022-12-23T10:16:17.504Z,1.81
2022-12-23T10:18:44.051Z,1.63
2022-12-23T10:21:10.521Z,4.01
2022-12-23T10:23:46.520Z,4.62
2022-12-23T10:26:13.420Z,2.00
2022-12-23T10:28:39.825Z,1.83
2022-12-23T10:31:38.093Z,1.80
2022-12-23T10:33:52.589Z,1.75
2022-12-23T10:36:18.980Z,2.21
2022-12-23T10:38:45.561Z,2.68
2022-12-23T10:41:11.959Z,2.29
2022-12-23T10:43:38.414Z,2.17
2022-12-23T10:46:04.866Z,2.40
2022-12-23T10:48:31.223Z,2.09
2022-12-23T10:51:01.398Z,2.76
2022-12-23T10:53:27.865Z,5.54
2022-12-23T10:55:54.304Z,3.69
2022-12-23T10:58:20.707Z,2.52
2022-12-23T11:00:47.236Z,2.05
2022-12-23T11:03:14.752Z,2.31
2022-12-23T11:05:41.356Z,2.00
2022-12-23T11:08:07.783Z,1.92
2022-12-23T11:10:34.275Z,2.15
2022-12-23T11:13:00.777Z,2.35
2022-12-23T11:15:27.169Z,1.96
2022-12-23T11:17:53.628Z,2.35
2022-12-23T11:20:20.151Z,1.43
2022-12-23T11:22:46.631Z,1.57
2022-12-23T11:25:13.055Z,1.99
2022-12-23T11:27:39.462Z,4.53
2022-12-23T11:30:05.897Z,5.74
2022-12-23T11:32:32.422Z,3.83
2022-12-23T11:34:58.936Z,5.74
2022-12-23T11:37:25.431Z,3.53
2022-12-23T11:39:51.847Z,2.93
2022-12-23T11:42:18.768Z,2.88
2022-12-23T11:44:45.215Z,2.60
2022-12-23T11:47:11.689Z,3.25
2022-12-23T11:49:38.116Z,4.55
2022-12-23T11:52:04.537Z,5.92
2022-12-23T11:54:30.981Z,3.78
2022-12-23T11:56:57.463Z,4.33
2022-12-23T11:59:24.067Z,4.48
2022-12-23T12:01:50.510Z,2.98
2022-12-23T12:04:16.945Z,3.51
2022-12-23T12:06:43.363Z,3.32
2022-12-23T12:09:09.754Z,3.16
2022-12-23T12:11:36.111Z,2.24
2022-12-23T12:14:02.487Z,2.47
2022-12-23T12:16:30.272Z,2.69
2022-12-23T12:18:56.721Z,2.46
2022-12-23T12:21:23.142Z,3.48
2022-12-23T12:24:02.945Z,4.19
2022-12-23T12:26:36.219Z,4.78
2022-12-23T12:29:04.798Z,4.75
2022-12-23T12:31:31.135Z,4.94
2022-12-23T12:34:00.478Z,5.92
2022-12-23T12:36:28.211Z,5.92
2022-12-23T12:38:54.655Z,5.95
2022-12-23T12:41:21.040Z,2.87
2022-12-23T12:43:47.709Z,4.35
2022-12-23T12:46:14.462Z,5.10
2022-12-23T12:48:43.126Z,5.49
2022-12-23T12:51:09.508Z,3.70
2022-12-23T12:53:35.926Z,3.91
2022-12-23T12:56:03.003Z,4.47
2022-12-23T12:58:29.366Z,3.39
2022-12-23T13:00:57.719Z,3.52
2022-12-23T13:03:24.344Z,3.53
2022-12-23T13:05:54.084Z,4.10
2022-12-23T13:08:24.040Z,5.29
2022-12-23T13:10:50.547Z,3.41
2022-12-23T13:13:17.002Z,3.70
2022-12-23T13:15:45.629Z,3.94
2022-12-23T13:18:19.598Z,3.50
2022-12-23T13:20:46.324Z,2.49
2022-12-23T13:23:41.772Z,2.62
2022-12-23T13:25:59.136Z,3.17
2022-12-23T13:28:25.571Z,4.27
2022-12-23T13:30:52.032Z,3.01
2022-12-23T13:33:18.661Z,2.16
2022-12-23T13:35:45.364Z,3.46
2022-12-23T13:38:11.914Z,3.28
2022-12-23T13:40:38.429Z,3.53
2022-12-23T13:43:04.884Z,2.91
2022-12-23T13:45:31.242Z,3.20
2022-12-23T13:48:04.295Z,3.66
2022-12-23T13:50:31.687Z,2.77
2022-12-23T13:52:58.089Z,3.57
2022-12-23T13:58:04.866Z,2.98
2022-12-23T14:00:31.250Z,2.34
2022-12-23T14:02:58.565Z,4.57
2022-12-23T14:05:26.272Z,4.23
2022-12-23T14:07:52.690Z,4.17
2022-12-23T14:10:19.227Z,2.39
2022-12-23T14:12:45.646Z,3.14
2022-12-23T14:15:12.111Z,2.59
2022-12-23T14:17:38.514Z,2.64
2022-12-23T14:20:05.021Z,2.83
2022-12-23T14:22:31.472Z,3.76
2022-12-23T14:24:57.815Z,4.48
2022-12-23T14:27:24.252Z,3.70
2022-12-23T14:29:50.619Z,3.31
2022-12-23T14:32:16.963Z,3.34
2022-12-23T14:34:46.151Z,4.09
2022-12-23T14:37:13.049Z,3.86
2022-12-23T14:39:41.775Z,2.95
2022-12-23T14:47:53.871Z,3.10
2022-12-23T15:02:24.768Z,5.08
2022-12-23T15:07:19.000Z,3.28
2022-12-23T15:09:49.737Z,8.41
2022-12-23T15:12:16.205Z,10.20
2022-12-23T15:14:49.982Z,8.71
2022-12-23T15:17:16.529Z,3.43
2022-12-23T15:19:42.991Z,2.88
2022-12-23T15:22:19.854Z,3.70
2022-12-23T15:24:48.966Z,3.69
2022-12-23T15:27:27.219Z,3.40
2022-12-23T15:29:55.101Z,8.34
2022-12-23T15:32:24.300Z,5.88
2022-12-23T15:34:50.761Z,2.38
2022-12-23T15:37:17.278Z,4.01
2022-12-23T15:39:43.732Z,4.49
2022-12-23T15:42:10.157Z,3.62
2022-12-23T15:44:44.156Z,5.29
2022-12-23T15:47:10.655Z,3.88
2022-12-23T15:49:37.289Z,5.19
2022-12-23T15:52:09.842Z,4.30
2022-12-23T15:54:39.634Z,3.98
2022-12-23T15:57:06.078Z,3.59
2022-12-23T15:59:32.594Z,3.63
2022-12-23T16:01:59.057Z,5.08
2022-12-23T16:04:26.000Z,6.14
2022-12-23T16:06:52.752Z,4.35
2022-12-23T16:09:19.181Z,6.35
2022-12-23T16:11:45.676Z,5.91
2022-12-23T16:14:12.131Z,4.33
2022-12-23T16:16:38.685Z,3.77
2022-12-23T16:19:05.167Z,3.85
2022-12-23T16:21:31.501Z,4.08
2022-12-23T16:23:57.905Z,9.26
2022-12-23T16:26:24.281Z,11.26
2022-12-23T16:28:50.704Z,4.59
2022-12-23T16:31:17.281Z,5.82
2022-12-23T16:33:43.680Z,5.13
2022-12-23T16:36:17.703Z,4.88
2022-12-23T16:38:44.957Z,4.63
2022-12-23T16:41:17.161Z,4.40
2022-12-23T16:43:51.602Z,4.45
2022-12-23T16:46:19.099Z,3.26
2022-12-23T16:48:45.530Z,3.43
2022-12-23T16:51:11.918Z,3.47
2022-12-23T16:56:30.749Z,2.84
2022-12-23T16:58:57.126Z,2.87
2022-12-23T17:01:23.684Z,3.04
2022-12-23T17:03:50.182Z,3.10
2022-12-23T17:06:16.537Z,3.30
2022-12-23T17:08:43.138Z,3.54
2022-12-23T17:11:10.563Z,3.64
2022-12-23T17:13:39.410Z,3.13
2022-12-23T17:16:05.900Z,3.83
2022-12-23T17:18:32.287Z,3.68
2022-12-23T17:20:58.643Z,3.61
2022-12-23T17:23:25.264Z,4.43
2022-12-23T17:25:58.994Z,4.44
2022-12-23T17:28:26.499Z,4.19
2022-12-23T17:30:52.915Z,3.64
2022-12-23T17:33:19.335Z,3.84
2022-12-23T17:35:47.698Z,3.38
2022-12-23T17:40:54.824Z,5.83
2022-12-23T17:43:21.399Z,5.40
2022-12-23T17:45:50.045Z,5.14
2022-12-23T17:48:21.353Z,5.12
2022-12-23T17:50:49.654Z,5.13
2022-12-23T17:53:16.040Z,5.26
2022-12-23T17:55:42.388Z,6.28
2022-12-23T17:58:08.780Z,5.91
2022-12-23T18:00:35.224Z,5.72
2022-12-23T18:03:01.593Z,6.41
2022-12-23T18:05:29.055Z,6.51
2022-12-23T18:13:17.151Z,6.33
2022-12-23T18:15:43.700Z,6.09
2022-12-23T18:18:10.218Z,4.72
2022-12-23T18:20:39.182Z,5.50
2022-12-23T18:23:08.892Z,5.95
2022-12-23T18:28:16.681Z,3.39
2022-12-23T18:30:43.199Z,4.10
2022-12-23T18:33:09.836Z,4.56
2022-12-23T18:35:36.266Z,3.26
2022-12-23T18:38:02.870Z,3.56
2022-12-23T18:40:32.904Z,3.71
2022-12-23T18:42:59.658Z,4.51
2022-12-23T18:45:26.137Z,6.61
2022-12-23T18:47:52.487Z,2.70
2022-12-23T18:50:18.941Z,1.39
2022-12-23T18:52:45.418Z,1.50
2022-12-23T18:55:11.820Z,1.38
2022-12-23T18:57:38.428Z,0.98
2022-12-23T19:00:04.909Z,0.84
2022-12-23T19:02:34.069Z,0.92
2022-12-23T19:05:06.827Z,1.93
2022-12-23T19:07:33.238Z,1.02
2022-12-23T19:09:59.621Z,0.92
2022-12-23T19:12:26.076Z,1.18
2022-12-23T19:14:52.492Z,1.36
2022-12-23T19:17:19.936Z,2.87
2022-12-23T19:19:46.382Z,2.13
2022-12-23T19:22:12.857Z,1.03
2022-12-23T19:24:51.844Z,1.05
2022-12-23T19:27:25.638Z,1.27
2022-12-23T19:29:52.108Z,1.68
2022-12-23T19:32:18.614Z,1.40
2022-12-23T19:34:45.207Z,2.35
2022-12-23T19:37:11.711Z,2.88
2022-12-23T19:39:40.159Z,1.93
2022-12-23T19:42:06.567Z,1.79
2022-12-23T19:44:32.989Z,1.50
2022-12-23T19:47:01.778Z,2.44
2022-12-23T19:49:28.214Z,6.50
2022-12-23T19:51:58.373Z,4.67
2022-12-23T19:54:24.853Z,2.67
2022-12-23T19:56:51.274Z,2.05
2022-12-23T19:59:17.714Z,2.21
2022-12-23T20:01:44.241Z,2.50
2022-12-23T20:09:31.267Z,6.12
2022-12-23T20:11:57.909Z,4.26
2022-12-23T20:14:26.730Z,3.88
2022-12-23T20:16:56.898Z,3.57
2022-12-23T20:19:23.385Z,6.08
2022-12-23T20:21:49.811Z,7.27
2022-12-23T20:24:16.291Z,5.63
2022-12-23T20:26:42.737Z,4.65
2022-12-23T20:29:09.164Z,4.71
2022-12-23T20:31:35.698Z,3.13
2022-12-23T20:34:02.190Z,5.17
2022-12-23T20:36:28.773Z,6.85
2022-12-23T20:38:55.205Z,3.01
2022-12-23T20:41:25.000Z,3.13
2022-12-23T20:46:52.818Z,7.07
2022-12-23T20:49:19.304Z,4.38
2022-12-23T20:51:45.798Z,4.29
2022-12-23T20:54:12.516Z,2.40
2022-12-23T20:56:39.439Z,1.56
2022-12-23T20:59:13.633Z,2.63
2022-12-23T21:01:40.059Z,2.26
2022-12-23T21:04:06.723Z,2.15
2022-12-23T21:06:33.142Z,2.81
2022-12-23T21:08:59.626Z,3.43
2022-12-23T21:11:26.964Z,3.02
2022-12-23T21:13:53.477Z,2.36
2022-12-23T21:16:22.948Z,4.07
2022-12-23T21:18:49.477Z,3.51
2022-12-23T21:21:16.052Z,3.55
2022-12-23T21:23:42.515Z,3.99
2022-12-23T21:26:10.274Z,2.80
2022-12-23T21:28:36.825Z,3.42
2022-12-23T21:31:06.771Z,4.41
2022-12-23T21:33:33.191Z,3.77
2022-12-23T21:35:59.682Z,3.76
2022-12-23T21:38:26.214Z,3.42
2022-12-23T21:40:52.768Z,2.91
2022-12-23T21:43:19.364Z,2.77
2022-12-23T21:45:45.794Z,3.15
2022-12-23T21:48:12.183Z,3.07
2022-12-23T21:50:38.609Z,1.97
2022-12-23T21:53:05.050Z,1.86
2022-12-23T21:55:31.441Z,2.30
2022-12-23T21:58:00.000Z,2.59
2022-12-23T22:00:26.701Z,2.45
2022-12-23T22:03:04.408Z,2.42
2022-12-23T22:05:38.365Z,2.40
2022-12-23T22:08:24.710Z,2.43
2022-12-23T22:10:53.470Z,2.58
2022-12-23T22:13:19.941Z,3.06
2022-12-23T22:15:48.623Z,2.19
2022-12-23T22:18:15.142Z,1.70
2022-12-23T22:20:46.228Z,2.81
2022-12-23T22:23:17.016Z,2.33
2022-12-23T22:25:45.594Z,3.28
2022-12-23T22:28:14.243Z,2.94
2022-12-23T22:30:40.622Z,2.00
2022-12-23T22:33:07.034Z,2.50
2022-12-23T22:35:33.606Z,2.41
2022-12-23T22:38:00.053Z,2.13
2022-12-23T22:40:26.564Z,1.91
2022-12-23T22:42:55.405Z,1.78
2022-12-23T22:45:21.853Z,1.82
2022-12-23T22:47:48.293Z,1.80
2022-12-23T22:50:15.049Z,2.07
2022-12-23T22:52:41.513Z,1.86
2022-12-23T22:55:07.948Z,1.57
2022-12-23T22:57:36.812Z,1.92
2022-12-23T23:00:09.650Z,2.16
2022-12-23T23:02:38.609Z,1.91
2022-12-23T23:05:10.778Z,1.97
2022-12-23T23:07:39.223Z,2.01
2022-12-23T23:10:06.089Z,2.16
2022-12-23T23:12:34.977Z,2.03
2022-12-23T23:15:02.458Z,1.59
2022-12-23T23:17:35.150Z,1.78
2022-12-23T23:20:01.618Z,1.74
2022-12-23T23:22:28.069Z,2.08
2022-12-23T23:24:55.092Z,2.72
2022-12-23T23:27:21.565Z,4.56
2022-12-23T23:29:50.482Z,2.11
2022-12-23T23:32:17.073Z,2.09
2022-12-23T23:34:43.521Z,2.22
2022-12-23T23:37:09.954Z,2.67
2022-12-23T23:39:36.404Z,2.39
2022-12-23T23:42:03.052Z,2.31
2022-12-23T23:44:29.562Z,1.93
2022-12-23T23:46:59.517Z,2.15
2022-12-23T23:49:25.959Z,2.17
2022-12-23T23:51:52.345Z,2.40
2022-12-23T23:54:19.597Z,2.70
2022-12-23T23:56:45.954Z,5.54
2022-12-23T23:59:12.347Z,5.58
